createdAt,value
2018-05-08T00:00:43.834Z,59.11
2018-05-08T00:03:11.839Z,58.85
2018-05-08T00:05:39.811Z,57.49
2018-05-08T00:08:07.860Z,57.38
2018-05-08T00:10:35.830Z,58.83
2018-05-08T00:13:03.770Z,57.78
2018-05-08T00:15:31.754Z,58.75
2018-05-08T00:17:59.733Z,61.45
2018-05-08T00:20:27.746Z,62.27
2018-05-08T00:22:55.768Z,63.64
2018-05-08T00:25:23.863Z,63.58
2018-05-08T00:27:51.845Z,62.51
2018-05-08T00:30:19.806Z,63.86
2018-05-08T00:32:47.841Z,64.67
2018-05-08T00:35:15.885Z,65.43
2018-05-08T00:37:43.929Z,65.62
2018-05-08T00:40:11.946Z,65.16
2018-05-08T00:42:40.207Z,65.04
2018-05-08T00:45:08.168Z,64.35
2018-05-08T00:47:36.166Z,63.91
2018-05-08T00:50:04.245Z,63.84
2018-05-08T00:52:32.240Z,64.91
2018-05-08T00:55:05.239Z,64.88
2018-05-08T00:57:33.314Z,62.33
2018-05-08T01:00:01.367Z,61.14
2018-05-08T01:02:29.537Z,60.02
2018-05-08T01:04:57.775Z,61.97
2018-05-08T01:07:26.224Z,63.29
2018-05-08T01:09:54.808Z,62.19
2018-05-08T01:12:23.325Z,60.08
2018-05-08T01:14:51.663Z,59.34
2018-05-08T01:17:20.235Z,62.50
2018-05-08T01:19:48.392Z,62.98
2018-05-08T01:22:16.314Z,64.29
2018-05-08T01:24:44.338Z,65.11
2018-05-08T01:27:12.417Z,63.81
2018-05-08T01:29:40.398Z,63.23
2018-05-08T01:32:08.794Z,62.95
2018-05-08T01:34:37.358Z,65.14
2018-05-08T01:37:05.802Z,66.20
2018-05-08T01:39:34.430Z,63.70
2018-05-08T01:42:03.338Z,63.33
2018-05-08T01:44:32.421Z,62.34
2018-05-08T01:47:00.905Z,60.72
2018-05-08T01:49:29.470Z,59.87
2018-05-08T01:51:57.833Z,60.33
2018-05-08T01:54:26.331Z,62.22
2018-05-08T01:56:54.708Z,62.17
2018-05-08T01:59:23.289Z,60.58
2018-05-08T02:01:52.061Z,59.97
2018-05-08T02:04:20.758Z,60.17
2018-05-08T02:06:49.158Z,62.21
2018-05-08T02:09:17.713Z,63.99
2018-05-08T02:11:46.502Z,61.18
2018-05-08T02:14:15.100Z,59.91
2018-05-08T02:16:43.819Z,62.54
2018-05-08T02:19:12.463Z,61.44
2018-05-08T02:21:41.049Z,59.81
2018-05-08T02:24:09.324Z,59.25
2018-05-08T02:26:37.908Z,59.15
2018-05-08T02:29:06.592Z,59.05
2018-05-08T02:31:35.215Z,59.17
2018-05-08T02:34:03.771Z,63.27
2018-05-08T02:36:32.346Z,67.54
2018-05-08T02:39:00.687Z,67.97
2018-05-08T02:41:29.321Z,69.73
2018-05-08T02:43:58.080Z,69.73
2018-05-08T02:46:26.771Z,68.87
2018-05-08T02:48:55.150Z,69.02
2018-05-08T02:51:23.842Z,66.98
2018-05-08T02:53:52.718Z,66.61
2018-05-08T02:56:21.609Z,67.62
2018-05-08T02:58:50.503Z,64.23
2018-05-08T03:01:19.390Z,62.34
2018-05-08T03:03:47.665Z,63.33
2018-05-08T03:06:16.438Z,62.29
2018-05-08T03:08:45.242Z,63.28
2018-05-08T03:11:13.912Z,62.49
2018-05-08T03:13:42.423Z,61.77
2018-05-08T03:16:10.880Z,61.55
2018-05-08T03:18:39.675Z,61.98
2018-05-08T03:21:07.877Z,69.51
2018-05-08T03:23:36.223Z,68.92
2018-05-08T03:26:04.224Z,67.82
2018-05-08T03:28:32.261Z,67.29
2018-05-08T03:31:00.261Z,64.50
2018-05-08T03:33:28.307Z,64.48
2018-05-08T03:35:56.295Z,63.66
2018-05-08T03:38:24.365Z,61.34
2018-05-08T03:40:52.325Z,60.93
2018-05-08T03:43:20.346Z,63.16
2018-05-08T03:45:48.354Z,63.73
2018-05-08T03:48:16.861Z,65.85
2018-05-08T03:50:44.878Z,66.07
2018-05-08T03:53:12.845Z,63.15
2018-05-08T03:55:40.848Z,60.90
2018-05-08T03:58:08.793Z,60.89
2018-05-08T04:00:48.462Z,61.44
2018-05-08T04:03:28.467Z,60.50
2018-05-08T04:05:59.291Z,59.94
2018-05-08T04:08:31.937Z,59.42
2018-05-08T04:10:59.909Z,59.83
2018-05-08T04:13:27.890Z,59.38
2018-05-08T04:15:55.882Z,58.72
2018-05-08T04:18:25.936Z,58.12
2018-05-08T04:20:53.930Z,61.50
2018-05-08T04:23:21.976Z,63.04
2018-05-08T04:25:49.923Z,62.24
2018-05-08T04:28:17.949Z,58.77
2018-05-08T04:30:45.940Z,61.89
2018-05-08T04:33:13.929Z,61.29
2018-05-08T04:35:41.890Z,59.87
2018-05-08T04:38:09.964Z,59.41
2018-05-08T04:40:37.985Z,59.83
2018-05-08T04:43:06.045Z,57.92
2018-05-08T04:45:34.084Z,56.10
2018-05-08T04:48:02.026Z,55.29
2018-05-08T04:50:30.277Z,55.62
2018-05-08T04:52:58.285Z,56.18
2018-05-08T04:55:26.290Z,54.93
2018-05-08T04:57:54.427Z,56.67
2018-05-08T05:00:22.351Z,56.73
2018-05-08T05:02:50.440Z,56.38
2018-05-08T05:05:18.466Z,54.72
2018-05-08T05:07:46.498Z,54.03
2018-05-08T05:10:14.529Z,56.08
2018-05-08T05:12:42.590Z,57.82
2018-05-08T05:15:10.601Z,55.81
2018-05-08T05:17:39.083Z,56.92
2018-05-08T05:20:08.069Z,56.29
2018-05-08T05:22:36.129Z,54.42
2018-05-08T05:25:04.129Z,53.76
2018-05-08T05:27:32.156Z,56.49
2018-05-08T05:30:00.117Z,55.38
2018-05-08T05:32:29.021Z,55.63
2018-05-08T05:34:57.062Z,55.79
2018-05-08T05:37:25.096Z,53.90
2018-05-08T05:39:53.147Z,53.75
2018-05-08T05:42:21.249Z,53.78
2018-05-08T05:44:49.284Z,54.79
2018-05-08T05:47:17.390Z,52.78
2018-05-08T05:49:45.455Z,55.88
2018-05-08T05:52:14.742Z,54.07
2018-05-08T05:54:42.833Z,53.82
2018-05-08T05:57:26.979Z,52.06
2018-05-08T05:59:55.116Z,51.88
2018-05-08T06:02:23.330Z,51.04
2018-05-08T06:04:51.378Z,51.64
2018-05-08T06:07:19.379Z,49.44
2018-05-08T06:09:47.369Z,49.90
2018-05-08T06:12:15.419Z,50.68
2018-05-08T06:14:43.468Z,50.86
2018-05-08T06:17:11.478Z,48.71
2018-05-08T06:19:39.495Z,48.09
2018-05-08T06:22:07.600Z,48.51
2018-05-08T06:24:35.708Z,46.65
2018-05-08T06:27:03.719Z,47.73
2018-05-08T06:29:31.836Z,48.54
2018-05-08T06:31:59.858Z,47.96
2018-05-08T06:34:27.887Z,46.53
2018-05-08T06:36:55.932Z,45.33
2018-05-08T06:39:23.940Z,46.59
2018-05-08T06:41:51.994Z,45.37
2018-05-08T06:44:20.101Z,42.82
2018-05-08T06:46:48.215Z,43.08
2018-05-08T06:49:16.290Z,43.18
2018-05-08T06:51:44.341Z,41.20
2018-05-08T06:54:12.760Z,43.07
2018-05-08T06:56:41.275Z,41.83
2018-05-08T06:59:09.323Z,40.69
2018-05-08T07:01:37.646Z,41.77
2018-05-08T07:04:05.697Z,40.86
2018-05-08T07:06:33.722Z,42.31
2018-05-08T07:09:01.805Z,42.98
2018-05-08T07:11:29.863Z,41.06
2018-05-08T07:13:57.842Z,39.80
2018-05-08T07:16:25.835Z,39.56
2018-05-08T07:18:53.842Z,38.21
2018-05-08T07:21:21.828Z,37.62
2018-05-08T07:23:49.864Z,38.27
2018-05-08T07:26:17.891Z,37.70
2018-05-08T07:28:45.915Z,38.73
2018-05-08T07:31:13.989Z,38.51
2018-05-08T07:33:42.089Z,38.08
2018-05-08T07:36:10.099Z,36.05
2018-05-08T07:38:38.102Z,37.21
2018-05-08T07:41:06.145Z,37.32
2018-05-08T07:43:34.211Z,37.41
2018-05-08T07:46:02.233Z,36.76
2018-05-08T07:48:30.197Z,35.80
2018-05-08T07:50:58.191Z,35.55
2018-05-08T07:53:26.193Z,34.36
2018-05-08T07:55:54.637Z,33.46
2018-05-08T07:58:22.635Z,34.02
2018-05-08T08:00:50.699Z,32.16
2018-05-08T08:03:18.778Z,31.72
2018-05-08T08:05:46.783Z,29.72
2018-05-08T08:08:14.817Z,30.76
2018-05-08T08:10:42.847Z,30.32
2018-05-08T08:13:10.879Z,29.25
2018-05-08T08:15:38.862Z,30.09
2018-05-08T08:18:06.837Z,28.43
2018-05-08T08:20:34.805Z,29.57
2018-05-08T08:23:02.862Z,27.79
2018-05-08T08:25:30.990Z,28.79
2018-05-08T08:27:59.081Z,29.45
2018-05-08T08:30:27.090Z,29.05
2018-05-08T08:32:55.058Z,29.82
2018-05-08T08:35:23.131Z,29.42
2018-05-08T08:37:51.150Z,27.18
2018-05-08T08:40:19.498Z,27.19
2018-05-08T08:42:47.655Z,26.46
2018-05-08T08:45:15.705Z,25.64
2018-05-08T08:47:43.774Z,25.07
2018-05-08T08:50:11.723Z,23.59
2018-05-08T08:52:39.751Z,24.41
2018-05-08T08:55:07.751Z,26.08
2018-05-08T08:57:36.041Z,27.36
2018-05-08T09:00:04.146Z,27.04
2018-05-08T09:02:32.164Z,26.16
2018-05-08T09:05:00.231Z,24.90
2018-05-08T09:07:28.244Z,24.66
2018-05-08T09:09:56.338Z,26.29
2018-05-08T09:12:24.339Z,27.94
2018-05-08T09:14:52.474Z,27.22
2018-05-08T09:17:20.631Z,27.10
2018-05-08T09:19:48.775Z,26.85
2018-05-08T09:22:16.859Z,26.59
2018-05-08T09:24:44.847Z,26.26
2018-05-08T09:27:12.870Z,24.72
2018-05-08T09:29:40.835Z,25.21
2018-05-08T09:32:08.834Z,24.75
2018-05-08T09:34:36.811Z,27.05
2018-05-08T09:37:04.866Z,29.24
2018-05-08T09:39:32.887Z,28.37
2018-05-08T09:42:00.878Z,25.87
2018-05-08T09:44:28.874Z,23.89
2018-05-08T09:46:56.881Z,23.18
2018-05-08T09:49:24.894Z,25.59
2018-05-08T09:51:53.018Z,26.78
2018-05-08T09:54:21.015Z,26.18
2018-05-08T09:56:49.034Z,24.31
2018-05-08T09:59:17.755Z,24.78
2018-05-08T10:01:45.848Z,23.73
2018-05-08T10:04:14.084Z,24.61
2018-05-08T10:06:42.161Z,22.59
2018-05-08T10:09:10.238Z,21.79
2018-05-08T10:11:38.262Z,20.57
2018-05-08T10:14:06.325Z,20.53
2018-05-08T10:16:34.487Z,21.07
2018-05-08T10:19:02.570Z,19.83
2018-05-08T10:21:30.659Z,19.61
2018-05-08T10:23:58.673Z,19.13
2018-05-08T10:26:26.669Z,18.82
2018-05-08T10:28:54.669Z,18.56
2018-05-08T10:31:23.066Z,19.80
2018-05-08T10:33:51.086Z,19.47
2018-05-08T10:36:19.094Z,22.24
2018-05-08T10:38:47.237Z,21.29
2018-05-08T10:41:15.278Z,21.38
2018-05-08T10:43:43.200Z,20.62
2018-05-08T10:46:11.187Z,21.35
2018-05-08T10:48:39.271Z,20.91
2018-05-08T10:51:07.555Z,19.02
2018-05-08T10:53:35.544Z,18.91
2018-05-08T10:56:04.078Z,19.98
2018-05-08T10:58:32.133Z,21.06
2018-05-08T11:44:41.565Z,44.78
2018-05-08T11:47:09.592Z,47.51
2018-05-08T11:49:37.784Z,48.19
2018-05-08T11:52:05.710Z,50.40
2018-05-08T11:54:33.713Z,51.47
2018-05-08T11:57:01.749Z,52.09
2018-05-08T11:59:29.803Z,50.86
2018-05-08T12:01:58.206Z,51.00
2018-05-08T12:04:26.485Z,53.10
2018-05-08T12:06:55.273Z,54.75
2018-05-08T12:09:23.334Z,54.70
2018-05-08T12:11:51.350Z,54.43
2018-05-08T12:14:19.347Z,54.10
2018-05-08T12:16:47.293Z,55.20
2018-05-08T12:19:15.251Z,53.28
2018-05-08T12:21:43.316Z,50.49
2018-05-08T12:24:11.305Z,53.22
2018-05-08T12:26:39.426Z,49.62
2018-05-08T12:29:07.527Z,50.35
2018-05-08T12:31:35.432Z,47.35
2018-05-08T12:34:03.425Z,45.55
2018-05-08T12:36:31.455Z,47.89
2018-05-08T12:38:59.480Z,47.14
2018-05-08T12:41:27.641Z,44.24
2018-05-08T12:43:55.686Z,42.01
2018-05-08T12:46:23.650Z,41.91
2018-05-08T12:48:51.698Z,41.31
2018-05-08T12:51:19.698Z,39.55
2018-05-08T12:53:47.765Z,37.27
2018-05-08T12:56:15.852Z,34.32
2018-05-08T12:58:43.853Z,36.03
2018-05-08T13:01:11.858Z,35.80
2018-05-08T13:03:40.375Z,35.70
2018-05-08T13:06:08.434Z,33.69
2018-05-08T13:08:36.457Z,37.12
2018-05-08T13:11:04.547Z,36.52
2018-05-08T13:13:32.539Z,35.44
2018-05-08T13:16:00.561Z,35.52
2018-05-08T13:18:28.577Z,35.31
2018-05-08T13:20:56.599Z,36.41
2018-05-08T13:23:24.587Z,34.78
2018-05-08T13:25:52.565Z,34.63
2018-05-08T13:28:20.554Z,33.23
2018-05-08T13:30:48.627Z,34.25
2018-05-08T13:33:16.795Z,34.64
2018-05-08T13:35:44.738Z,34.74
2018-05-08T13:38:12.781Z,39.17
2018-05-08T13:40:40.826Z,37.29
2018-05-08T13:43:08.898Z,41.13
2018-05-08T13:45:37.330Z,40.59
2018-05-08T13:48:05.962Z,41.42
2018-05-08T13:50:34.470Z,40.43
2018-05-08T13:53:02.507Z,40.36
2018-05-08T13:55:30.532Z,40.84
2018-05-08T13:57:58.557Z,40.94
2018-05-08T14:00:26.530Z,39.89
2018-05-08T14:02:54.536Z,40.50
2018-05-08T14:05:22.716Z,40.67
2018-05-08T14:07:50.696Z,40.00
2018-05-08T14:10:18.736Z,41.27
2018-05-08T14:12:46.810Z,42.84
2018-05-08T14:15:14.793Z,43.01
2018-05-08T14:17:42.788Z,43.12
2018-05-08T14:20:10.863Z,44.49
2018-05-08T14:22:38.927Z,46.19
2018-05-08T14:25:06.983Z,46.91
2018-05-08T14:27:34.926Z,48.33
2018-05-08T14:30:02.887Z,49.08
2018-05-08T14:32:30.911Z,46.97
2018-05-08T14:34:59.094Z,46.43
2018-05-08T14:37:27.163Z,48.55
2018-05-08T14:39:55.238Z,50.35
2018-05-08T14:42:23.346Z,49.21
2018-05-08T14:44:51.356Z,50.22
2018-05-08T14:47:19.331Z,50.67
2018-05-08T14:49:47.386Z,51.09
2018-05-08T14:52:15.433Z,50.71
2018-05-08T14:54:43.444Z,51.88
2018-05-08T14:57:11.426Z,50.96
2018-05-08T14:59:39.465Z,52.28
2018-05-08T15:02:07.479Z,52.78
2018-05-08T15:04:35.428Z,50.32
2018-05-08T15:07:03.772Z,52.34
2018-05-08T15:09:31.786Z,52.04
2018-05-08T15:11:59.750Z,52.43
2018-05-08T15:14:27.820Z,52.76
2018-05-08T15:16:55.740Z,53.98
2018-05-08T15:19:23.783Z,54.81
2018-05-08T15:21:51.842Z,53.26
2018-05-08T15:24:19.947Z,54.27
2018-05-08T15:26:47.972Z,53.13
2018-05-08T15:29:15.983Z,53.68
2018-05-08T15:31:44.035Z,56.72
2018-05-08T15:34:12.005Z,57.56
2018-05-08T15:36:39.946Z,56.08
2018-05-08T15:39:07.950Z,54.69
2018-05-08T15:41:35.987Z,54.81
2018-05-08T15:44:04.043Z,55.50
2018-05-08T15:46:32.058Z,55.27
2018-05-08T15:49:00.058Z,54.03
2018-05-08T15:51:28.264Z,54.10
2018-05-08T15:53:56.278Z,52.97
2018-05-08T15:56:24.300Z,52.48
2018-05-08T15:58:52.285Z,52.38
2018-05-08T16:01:20.320Z,55.24
2018-05-08T16:03:48.310Z,54.39
2018-05-08T16:06:16.410Z,54.05
2018-05-08T16:08:44.831Z,55.83
2018-05-08T16:11:12.827Z,54.24
2018-05-08T16:13:40.815Z,53.94
2018-05-08T16:16:08.798Z,53.03
2018-05-08T16:18:36.814Z,52.27
2018-05-08T16:21:04.813Z,53.29
2018-05-08T16:23:32.808Z,53.80
2018-05-08T16:26:00.785Z,55.40
2018-05-08T16:28:28.817Z,55.70
2018-05-08T16:30:56.806Z,53.48
2018-05-08T16:33:24.826Z,52.49
2018-05-08T16:35:52.820Z,53.05
2018-05-08T16:38:21.671Z,52.38
2018-05-08T16:40:49.725Z,51.57
2018-05-08T16:43:17.811Z,51.53
2018-05-08T16:45:45.828Z,50.93
2018-05-08T16:48:13.905Z,51.46
2018-05-08T16:50:41.997Z,52.16
2018-05-08T16:53:10.114Z,53.67
2018-05-08T16:55:38.140Z,54.26
2018-05-08T16:58:06.168Z,53.15
2018-05-08T17:00:34.175Z,52.99
2018-05-08T17:03:02.184Z,54.19
2018-05-08T17:05:30.071Z,53.45
2018-05-08T17:07:58.132Z,53.55
2018-05-08T17:10:26.482Z,55.42
2018-05-08T17:12:54.506Z,55.01
2018-05-08T17:15:22.523Z,56.60
2018-05-08T17:17:50.560Z,59.57
2018-05-08T17:20:18.590Z,59.91
2018-05-08T17:22:46.593Z,59.70
2018-05-08T17:25:14.535Z,58.51
2018-05-08T17:27:42.494Z,59.20
2018-05-08T17:30:10.472Z,60.54
2018-05-08T17:32:38.607Z,58.17
2018-05-08T17:35:06.759Z,56.63
2018-05-08T17:37:34.846Z,55.63
2018-05-08T17:40:02.876Z,57.02
2018-05-08T17:42:30.901Z,61.93
2018-05-08T17:44:58.918Z,59.89
2018-05-08T17:47:26.979Z,57.86
2018-05-08T17:49:56.120Z,57.38
2018-05-08T17:52:24.164Z,55.96
2018-05-08T17:54:52.181Z,56.52
2018-05-08T17:57:20.105Z,56.91
2018-05-08T17:59:48.062Z,58.43
2018-05-08T18:02:16.105Z,59.47
2018-05-08T18:04:44.109Z,59.78
2018-05-08T18:07:12.118Z,57.79
2018-05-08T18:09:40.787Z,57.01
2018-05-08T18:12:09.668Z,58.85
2018-05-08T18:14:38.359Z,60.16
2018-05-08T18:17:06.877Z,58.49
2018-05-08T18:19:35.210Z,59.83
2018-05-08T18:22:03.883Z,57.91
2018-05-08T18:24:32.670Z,57.91
2018-05-08T18:27:01.044Z,57.92
2018-05-08T18:29:29.640Z,57.23
2018-05-08T18:31:58.213Z,59.03
2018-05-08T18:34:26.897Z,58.41
2018-05-08T18:36:54.928Z,58.25
2018-05-08T18:39:22.946Z,57.63
2018-05-08T18:41:50.934Z,56.54
2018-05-08T18:44:18.854Z,57.15
2018-05-08T18:46:46.814Z,59.61
2018-05-08T18:49:15.048Z,58.83
2018-05-08T18:51:43.697Z,57.06
2018-05-08T18:54:12.294Z,56.48
2018-05-08T18:56:40.861Z,55.65
2018-05-08T18:59:09.454Z,55.51
2018-05-08T19:01:37.845Z,55.99
2018-05-08T19:04:06.306Z,55.43
2018-05-08T19:06:34.790Z,55.93
2018-05-08T19:09:03.307Z,55.73
2018-05-08T19:11:37.365Z,55.04
2018-05-08T19:14:05.869Z,54.90
2018-05-08T19:16:34.167Z,56.59
2018-05-08T19:19:08.932Z,56.48
2018-05-08T19:21:37.986Z,55.33
2018-05-08T19:24:12.567Z,58.38
2018-05-08T19:26:41.726Z,56.76
2018-05-08T19:29:16.469Z,56.23
2018-05-08T19:31:45.489Z,55.44
2018-05-08T19:34:14.341Z,57.30
2018-05-08T19:36:48.359Z,57.32
2018-05-08T19:39:16.621Z,57.50
2018-05-08T19:41:44.849Z,56.24
2018-05-08T19:44:12.916Z,56.23
2018-05-08T19:46:40.938Z,55.54
2018-05-08T19:49:09.019Z,55.73
2018-05-08T19:51:36.959Z,56.41
2018-05-08T19:54:04.999Z,55.78
2018-05-08T19:56:32.955Z,56.31
2018-05-08T19:59:01.059Z,55.99
2018-05-08T20:01:29.055Z,56.75
2018-05-08T20:03:57.050Z,56.95
2018-05-08T20:06:25.108Z,56.93
2018-05-08T20:08:53.157Z,56.85
2018-05-08T20:11:21.140Z,56.10
2018-05-08T20:13:49.170Z,54.99
2018-05-08T20:16:17.278Z,55.14
2018-05-08T20:18:45.285Z,55.25
2018-05-08T20:21:13.312Z,54.56
2018-05-08T20:23:41.366Z,54.67
2018-05-08T20:26:09.435Z,55.11
2018-05-08T20:28:37.539Z,55.25
2018-05-08T20:31:05.609Z,54.17
2018-05-08T20:33:33.609Z,55.30
2018-05-08T20:36:01.727Z,55.31
2018-05-08T20:38:29.706Z,54.58
2018-05-08T20:40:57.677Z,54.70
2018-05-08T20:43:25.666Z,54.81
2018-05-08T20:45:53.764Z,54.51
2018-05-08T20:48:21.795Z,56.49
2018-05-08T20:50:49.814Z,56.03
2018-05-08T20:53:17.897Z,55.93
2018-05-08T20:55:45.907Z,55.79
2018-05-08T20:58:13.913Z,54.98
2018-05-08T21:00:41.960Z,54.68
2018-05-08T21:03:09.925Z,54.73
2018-05-08T21:05:37.921Z,55.63
2018-05-08T21:08:05.939Z,56.42
2018-05-08T21:10:33.925Z,55.81
2018-05-08T21:13:01.874Z,57.39
2018-05-08T21:15:29.851Z,55.77
2018-05-08T21:17:58.376Z,55.56
2018-05-08T21:20:26.431Z,55.64
2018-05-08T21:22:54.485Z,54.92
2018-05-08T21:25:22.513Z,55.13
2018-05-08T21:27:56.049Z,54.70
2018-05-08T21:30:29.767Z,54.74
2018-05-08T21:32:57.934Z,55.29
2018-05-08T21:35:25.917Z,54.51
2018-05-08T21:37:53.882Z,54.30
2018-05-08T21:40:21.913Z,53.88
2018-05-08T21:42:49.899Z,54.08
2018-05-08T21:45:17.934Z,55.41
2018-05-08T21:47:45.948Z,56.50
2018-05-08T21:50:13.953Z,55.64
2018-05-08T21:52:41.983Z,56.39
2018-05-08T21:55:10.024Z,57.85
2018-05-08T21:57:38.036Z,57.53
2018-05-08T22:00:06.127Z,57.24
2018-05-08T22:02:34.175Z,56.14
2018-05-08T22:05:02.200Z,55.72
2018-05-08T22:07:30.215Z,55.41
2018-05-08T22:09:58.297Z,55.95
2018-05-08T22:12:26.329Z,56.71
2018-05-08T22:14:54.291Z,56.93
2018-05-08T22:17:22.256Z,56.71
2018-05-08T22:19:50.510Z,56.55
2018-05-08T22:22:18.492Z,56.42
2018-05-08T22:24:46.531Z,56.15
2018-05-08T22:27:14.513Z,55.84
2018-05-08T22:29:42.571Z,56.74
2018-05-08T22:32:10.625Z,60.69
2018-05-08T22:34:38.602Z,59.41
2018-05-08T22:37:06.570Z,57.94
2018-05-08T22:39:34.623Z,57.69
2018-05-08T22:42:02.620Z,57.41
2018-05-08T22:44:30.626Z,57.25
2018-05-08T22:46:58.611Z,59.77
2018-05-08T22:49:26.577Z,60.02
2018-05-08T22:51:54.607Z,59.90
2018-05-08T22:54:22.632Z,61.25
2018-05-08T22:56:50.647Z,59.29
2018-05-08T22:59:18.730Z,61.37
2018-05-08T23:01:46.727Z,59.75
2018-05-08T23:04:14.704Z,58.54
2018-05-08T23:06:42.694Z,58.88
2018-05-08T23:09:10.765Z,58.27
2018-05-08T23:11:38.781Z,58.35
2018-05-08T23:14:06.805Z,59.10
2018-05-08T23:16:34.814Z,59.18
2018-05-08T23:19:02.778Z,58.51
2018-05-08T23:21:31.295Z,58.30
2018-05-08T23:23:59.267Z,58.37
2018-05-08T23:26:27.285Z,60.58
2018-05-08T23:28:55.282Z,59.77
2018-05-08T23:31:23.337Z,58.87
2018-05-08T23:33:51.301Z,58.46
2018-05-08T23:36:19.299Z,58.12
2018-05-08T23:38:47.294Z,58.00
2018-05-08T23:41:15.290Z,58.28
2018-05-08T23:43:43.221Z,57.92
2018-05-08T23:46:11.235Z,57.76
2018-05-08T23:48:39.221Z,57.75
2018-05-08T23:51:07.258Z,58.93
2018-05-08T23:53:35.290Z,59.05
2018-05-08T23:56:03.283Z,58.49
2018-05-08T23:58:31.278Z,59.19
